createdAt,value
2018-07-21T00:01:28.166Z,72.11
2018-07-21T00:03:56.763Z,71.28
2018-07-21T00:06:25.467Z,71.66
2018-07-21T00:08:54.098Z,71.53
2018-07-21T00:11:22.865Z,71.64
2018-07-21T00:13:51.561Z,71.64
2018-07-21T00:16:20.272Z,71.00
2018-07-21T00:18:48.920Z,70.66
2018-07-21T00:21:17.571Z,71.08
2018-07-21T00:23:46.259Z,71.95
2018-07-21T00:26:14.910Z,71.70
2018-07-21T00:28:43.609Z,72.22
2018-07-21T00:31:12.282Z,71.02
2018-07-21T00:33:41.182Z,71.77
2018-07-21T00:36:09.887Z,72.17
2018-07-21T00:38:38.573Z,72.09
2018-07-21T00:41:07.565Z,71.65
2018-07-21T00:43:36.275Z,71.46
2018-07-21T00:46:05.098Z,71.71
2018-07-21T00:48:33.732Z,71.99
2018-07-21T00:51:02.392Z,71.81
2018-07-21T00:53:32.554Z,70.78
2018-07-21T00:56:02.633Z,71.71
2018-07-21T00:58:31.975Z,71.99
2018-07-21T01:01:00.896Z,71.88
2018-07-21T01:03:29.622Z,71.47
2018-07-21T01:05:58.258Z,71.87
2018-07-21T01:08:26.935Z,71.35
2018-07-21T01:10:55.756Z,70.87
2018-07-21T01:13:24.461Z,71.41
2018-07-21T01:15:53.158Z,71.01
2018-07-21T01:18:21.889Z,70.81
2018-07-21T01:20:50.554Z,70.83
2018-07-21T01:23:19.164Z,71.69
2018-07-21T01:25:47.851Z,70.90
2018-07-21T01:28:16.462Z,71.11
2018-07-21T01:30:45.223Z,70.35
2018-07-21T01:33:13.925Z,69.95
2018-07-21T01:35:42.561Z,69.92
2018-07-21T01:38:11.290Z,70.19
2018-07-21T01:40:39.944Z,70.37
2018-07-21T01:43:08.673Z,70.00
2018-07-21T01:45:37.434Z,69.40
2018-07-21T01:48:06.551Z,69.69
2018-07-21T01:50:35.365Z,70.09
2018-07-21T01:53:04.050Z,69.78
2018-07-21T01:55:32.745Z,70.17
2018-07-21T01:58:01.487Z,70.48
2018-07-21T02:00:30.504Z,70.24
2018-07-21T02:02:59.235Z,70.55
2018-07-21T02:05:27.974Z,70.50
2018-07-21T02:07:56.572Z,70.18
2018-07-21T02:10:25.316Z,70.54
2018-07-21T02:12:54.069Z,70.59
2018-07-21T02:15:22.787Z,70.67
2018-07-21T02:17:51.627Z,70.44
2018-07-21T02:20:20.335Z,70.27
2018-07-21T02:22:49.011Z,70.24
2018-07-21T02:25:17.728Z,70.34
2018-07-21T02:27:46.416Z,70.66
2018-07-21T02:30:15.094Z,71.50
2018-07-21T02:32:43.947Z,70.67
2018-07-21T02:35:12.590Z,71.14
2018-07-21T02:37:41.296Z,70.54
2018-07-21T02:40:09.968Z,70.64
2018-07-21T02:42:38.600Z,70.27
2018-07-21T02:45:07.347Z,70.24
2018-07-21T02:47:36.094Z,69.66
2018-07-21T02:50:05.038Z,69.55
2018-07-21T02:52:33.726Z,69.42
2018-07-21T02:55:02.410Z,69.05
2018-07-21T02:57:31.112Z,69.19
2018-07-21T02:59:59.812Z,68.64
2018-07-21T03:02:28.559Z,68.50
2018-07-21T03:04:57.259Z,68.49
2018-07-21T03:07:25.965Z,68.71
2018-07-21T03:09:54.656Z,68.43
2018-07-21T03:12:23.365Z,68.46
2018-07-21T03:14:52.105Z,67.97
2018-07-21T03:17:20.742Z,67.57
2018-07-21T03:19:49.467Z,67.45
2018-07-21T03:22:18.172Z,67.08
2018-07-21T03:24:46.907Z,66.88
2018-07-21T03:27:15.713Z,66.55
2018-07-21T03:29:44.376Z,66.81
2018-07-21T03:32:13.024Z,66.54
2018-07-21T03:34:41.673Z,66.88
2018-07-21T03:37:10.606Z,66.49
2018-07-21T03:39:39.214Z,66.42
2018-07-21T03:42:07.898Z,66.45
2018-07-21T03:44:36.641Z,65.58
2018-07-21T03:47:05.305Z,65.45
2018-07-21T03:49:33.954Z,65.99
2018-07-21T03:52:02.608Z,65.62
2018-07-21T03:54:31.457Z,65.00
2018-07-21T03:57:00.279Z,65.11
2018-07-21T03:59:28.966Z,64.31
2018-07-21T04:01:57.580Z,64.89
2018-07-21T04:04:26.254Z,64.79
2018-07-21T04:06:54.956Z,64.53
2018-07-21T04:09:23.696Z,64.39
2018-07-21T04:11:52.487Z,64.56
2018-07-21T04:14:21.229Z,64.45
2018-07-21T04:16:49.960Z,64.46
2018-07-21T04:19:18.646Z,63.95
2018-07-21T04:21:47.476Z,63.75
2018-07-21T04:24:16.254Z,63.32
2018-07-21T04:26:44.889Z,63.49
2018-07-21T04:29:13.454Z,63.12
2018-07-21T04:31:42.125Z,62.65
2018-07-21T04:34:10.811Z,61.50
2018-07-21T04:36:39.453Z,62.01
2018-07-21T04:39:10.106Z,61.69
2018-07-21T04:41:38.863Z,60.90
2018-07-21T04:44:07.762Z,60.37
2018-07-21T04:46:36.471Z,60.03
2018-07-21T04:49:05.405Z,60.00
2018-07-21T04:51:34.090Z,58.73
2018-07-21T04:54:03.816Z,58.80
2018-07-21T04:56:32.981Z,59.18
2018-07-21T04:59:01.575Z,58.75
2018-07-21T05:01:30.249Z,58.20
2018-07-21T05:03:58.923Z,58.63
2018-07-21T05:06:27.807Z,59.10
2018-07-21T05:08:56.492Z,60.01
2018-07-21T05:11:25.319Z,59.67
2018-07-21T05:13:53.942Z,59.72
2018-07-21T05:16:22.558Z,60.55
2018-07-21T05:18:51.277Z,59.13
2018-07-21T05:21:20.043Z,59.78
2018-07-21T05:23:48.671Z,59.87
2018-07-21T05:26:17.322Z,60.01
2018-07-21T05:28:46.076Z,57.78
2018-07-21T05:31:14.746Z,57.68
2018-07-21T05:33:43.401Z,56.94
2018-07-21T05:36:12.127Z,57.04
2018-07-21T05:38:40.843Z,56.77
2018-07-21T05:41:10.012Z,57.67
2018-07-21T05:43:38.766Z,57.22
2018-07-21T05:46:07.636Z,57.53
2018-07-21T05:48:36.426Z,56.62
2018-07-21T05:51:05.169Z,57.01
2018-07-21T05:53:33.889Z,56.91
2018-07-21T05:56:02.585Z,57.16
2018-07-21T05:58:31.274Z,56.97
2018-07-21T06:01:00.139Z,57.36
2018-07-21T06:03:28.769Z,57.53
2018-07-21T06:05:57.721Z,57.54
2018-07-21T06:08:26.380Z,57.85
2018-07-21T06:10:55.124Z,57.78
2018-07-21T06:13:23.765Z,57.47
2018-07-21T06:15:52.457Z,57.96
2018-07-21T06:18:21.151Z,57.83
2018-07-21T06:20:49.827Z,58.04
2018-07-21T06:23:18.562Z,58.13
2018-07-21T06:25:47.221Z,58.70
2018-07-21T06:28:15.794Z,58.63
2018-07-21T06:30:44.478Z,58.58
2018-07-21T06:33:13.378Z,58.80
2018-07-21T06:35:42.102Z,60.13
2018-07-21T06:38:10.961Z,60.02
2018-07-21T06:40:39.790Z,60.47
2018-07-21T06:43:08.606Z,59.66
2018-07-21T06:45:37.489Z,60.30
2018-07-21T06:48:06.440Z,59.14
2018-07-21T06:50:35.659Z,59.33
2018-07-21T06:53:04.349Z,60.33
2018-07-21T06:55:33.332Z,60.66
2018-07-21T06:58:02.199Z,60.71
2018-07-21T07:00:31.274Z,63.71
2018-07-21T07:02:59.930Z,63.26
2018-07-21T07:05:28.597Z,62.82
2018-07-21T07:07:57.298Z,62.68
2018-07-21T07:10:26.013Z,63.74
2018-07-21T07:12:54.808Z,63.89
2018-07-21T07:15:23.584Z,63.62
2018-07-21T07:17:52.310Z,64.95
2018-07-21T07:20:20.983Z,65.12
2018-07-21T07:22:49.794Z,66.41
2018-07-21T07:25:18.531Z,64.94
2018-07-21T07:27:47.355Z,66.34
2018-07-21T07:30:16.048Z,65.67
2018-07-21T07:32:44.693Z,66.07
2018-07-21T07:35:13.408Z,65.76
2018-07-21T07:37:42.059Z,65.75
2018-07-21T07:40:10.846Z,66.37
2018-07-21T07:42:39.507Z,64.86
2018-07-21T07:45:08.239Z,65.36
2018-07-21T07:47:37.004Z,65.76
2018-07-21T07:50:05.973Z,65.03
2018-07-21T07:52:34.743Z,64.88
2018-07-21T07:55:03.577Z,64.04
2018-07-21T07:57:32.393Z,63.79
2018-07-21T08:00:01.064Z,64.95
2018-07-21T08:02:29.855Z,65.26
2018-07-21T08:04:58.495Z,66.24
2018-07-21T08:07:27.324Z,65.96
2018-07-21T08:09:56.037Z,66.53
2018-07-21T08:12:24.858Z,66.66
2018-07-21T08:14:53.515Z,66.76
2018-07-21T08:17:22.161Z,66.96
2018-07-21T08:19:50.885Z,66.31
2018-07-21T08:22:19.675Z,65.99
2018-07-21T08:24:48.305Z,65.57
2018-07-21T08:27:16.970Z,65.79
2018-07-21T08:29:45.602Z,64.54
2018-07-21T08:32:14.338Z,64.22
2018-07-21T08:34:43.039Z,63.46
2018-07-21T08:37:11.627Z,62.96
2018-07-21T08:39:40.285Z,62.47
2018-07-21T08:42:09.166Z,62.45
2018-07-21T08:44:38.028Z,62.15
2018-07-21T08:47:06.951Z,61.93
2018-07-21T08:49:35.729Z,61.52
2018-07-21T08:52:04.561Z,61.46
2018-07-21T08:54:33.287Z,60.78
2018-07-21T08:57:02.238Z,60.30
2018-07-21T08:59:30.942Z,59.36
2018-07-21T09:01:59.632Z,58.44
2018-07-21T09:04:28.269Z,57.13
2018-07-21T09:06:57.051Z,57.66
2018-07-21T09:09:25.789Z,56.05
2018-07-21T09:11:54.525Z,55.11
2018-07-21T09:14:23.370Z,54.69
2018-07-21T09:16:52.552Z,55.44
2018-07-21T09:19:21.183Z,52.65
2018-07-21T09:21:49.822Z,53.12
2018-07-21T09:24:18.555Z,53.25
2018-07-21T09:26:47.217Z,52.34
2018-07-21T09:29:15.906Z,52.22
2018-07-21T09:31:44.551Z,52.03
2018-07-21T09:34:13.357Z,51.49
2018-07-21T09:36:42.105Z,51.17
2018-07-21T09:39:11.641Z,51.51
2018-07-21T09:41:40.530Z,51.50
2018-07-21T09:44:09.393Z,50.27
2018-07-21T09:46:38.717Z,50.44
2018-07-21T09:49:07.363Z,51.13
2018-07-21T09:51:36.107Z,48.95
2018-07-21T09:54:04.881Z,48.48
2018-07-21T09:56:33.641Z,48.57
2018-07-21T09:59:02.303Z,47.57
2018-07-21T10:01:31.128Z,46.36
2018-07-21T10:03:59.769Z,46.80
2018-07-21T10:06:28.702Z,44.22
2018-07-21T10:08:57.363Z,46.23
2018-07-21T10:11:26.236Z,45.42
2018-07-21T10:13:55.015Z,46.37
2018-07-21T10:16:23.699Z,46.45
2018-07-21T10:18:52.453Z,46.65
2018-07-21T10:21:21.204Z,45.95
2018-07-21T10:23:49.946Z,46.88
2018-07-21T10:26:23.907Z,47.82
2018-07-21T10:28:57.677Z,48.82
2018-07-21T10:31:26.444Z,49.68
2018-07-21T10:33:55.211Z,49.76
2018-07-21T10:36:23.963Z,48.64
2018-07-21T10:38:52.687Z,49.73
2018-07-21T10:41:21.433Z,50.12
2018-07-21T10:43:50.167Z,50.88
2018-07-21T10:46:18.774Z,49.90
2018-07-21T10:48:47.533Z,49.65
2018-07-21T10:51:16.372Z,49.81
2018-07-21T10:53:45.010Z,51.03
2018-07-21T10:56:13.779Z,49.58
2018-07-21T10:58:42.446Z,49.08
2018-07-21T11:01:11.340Z,48.08
2018-07-21T11:03:40.098Z,46.90
2018-07-21T11:06:08.868Z,46.29
2018-07-21T11:08:37.887Z,47.16
2018-07-21T11:11:06.873Z,46.67
2018-07-21T11:13:35.557Z,47.10
2018-07-21T11:16:04.247Z,46.16
2018-07-21T11:18:32.930Z,46.10
2018-07-21T11:21:01.571Z,45.18
2018-07-21T11:23:31.084Z,43.27
2018-07-21T11:25:59.917Z,43.40
2018-07-21T11:28:28.622Z,43.99
2018-07-21T11:30:57.353Z,45.35
2018-07-21T11:33:26.076Z,44.11
2018-07-21T11:35:54.978Z,43.99
2018-07-21T11:38:23.559Z,45.82
2018-07-21T11:40:52.186Z,45.98
2018-07-21T11:43:20.851Z,46.07
2018-07-21T11:45:49.525Z,45.53
2018-07-21T11:48:18.189Z,46.27
2018-07-21T11:50:46.819Z,47.45
2018-07-21T11:53:15.528Z,49.15
2018-07-21T11:55:44.302Z,49.92
2018-07-21T11:58:13.042Z,49.60
2018-07-21T12:00:41.784Z,50.14
2018-07-21T12:03:10.564Z,48.74
2018-07-21T12:05:39.210Z,48.32
2018-07-21T12:08:07.902Z,47.67
2018-07-21T12:10:36.801Z,48.35
2018-07-21T12:13:05.654Z,48.96
2018-07-21T12:15:34.420Z,50.03
2018-07-21T12:18:03.133Z,50.59
2018-07-21T12:20:31.866Z,51.18
2018-07-21T12:23:00.613Z,50.71
2018-07-21T12:25:29.267Z,49.73
2018-07-21T12:27:57.971Z,49.69
2018-07-21T12:30:26.596Z,49.62
2018-07-21T12:32:55.279Z,49.68
2018-07-21T12:35:23.969Z,50.29
2018-07-21T12:37:52.720Z,51.59
2018-07-21T12:40:21.394Z,51.93
2018-07-21T12:42:50.118Z,51.25
2018-07-21T12:45:18.743Z,51.65
2018-07-21T12:47:47.433Z,51.09
2018-07-21T12:50:16.096Z,51.95
2018-07-21T12:52:44.740Z,51.50
2018-07-21T12:55:13.548Z,49.91
2018-07-21T12:57:42.217Z,48.09
2018-07-21T13:00:11.026Z,48.46
2018-07-21T13:02:40.019Z,48.55
2018-07-21T13:06:11.150Z,48.42
2018-07-21T13:08:40.166Z,49.34
2018-07-21T13:11:09.119Z,50.31
2018-07-21T13:13:37.921Z,50.03
2018-07-21T13:16:06.672Z,49.75
2018-07-21T13:18:35.410Z,50.09
2018-07-21T13:21:04.131Z,48.97
2018-07-21T13:23:32.875Z,48.72
2018-07-21T13:26:01.590Z,45.58
2018-07-21T13:28:30.295Z,44.54
2018-07-21T13:30:59.020Z,43.73
2018-07-21T13:33:27.678Z,42.41
2018-07-21T13:35:56.386Z,39.12
2018-07-21T13:38:25.208Z,35.94
2018-07-21T13:40:53.879Z,34.29
2018-07-21T13:43:22.536Z,33.81
2018-07-21T13:45:51.216Z,34.50
2018-07-21T13:48:19.982Z,36.30
2018-07-21T13:50:48.663Z,35.83
2018-07-21T13:53:17.456Z,37.11
2018-07-21T13:55:46.360Z,36.77
2018-07-21T13:58:15.076Z,38.06
2018-07-21T14:00:43.840Z,39.02
2018-07-21T14:03:12.616Z,40.74
2018-07-21T14:05:41.421Z,41.32
2018-07-21T14:08:10.145Z,41.97
2018-07-21T14:10:39.041Z,42.49
2018-07-21T14:13:07.883Z,41.59
2018-07-21T14:15:36.959Z,41.31
2018-07-21T14:18:05.972Z,41.31
2018-07-21T14:20:34.741Z,40.73
2018-07-21T14:23:03.365Z,42.33
2018-07-21T14:25:32.280Z,43.83
2018-07-21T14:28:01.084Z,43.41
2018-07-21T14:30:29.718Z,42.92
2018-07-21T14:32:58.586Z,42.94
2018-07-21T14:35:27.309Z,41.71
2018-07-21T14:37:56.021Z,43.04
2018-07-21T14:40:24.883Z,44.46
2018-07-21T14:42:53.525Z,44.17
2018-07-21T14:45:22.248Z,41.92
2018-07-21T14:47:50.953Z,39.67
2018-07-21T14:50:19.680Z,41.23
2018-07-21T14:52:48.397Z,43.10
2018-07-21T14:55:17.320Z,45.70
2018-07-21T14:57:46.062Z,47.57
2018-07-21T15:00:14.834Z,42.22
2018-07-21T15:02:43.537Z,42.83
2018-07-21T15:05:12.193Z,43.07
2018-07-21T15:07:40.786Z,41.61
2018-07-21T15:10:09.474Z,42.23
2018-07-21T15:12:38.241Z,43.46
2018-07-21T15:15:07.762Z,44.30
2018-07-21T15:17:36.535Z,41.53
2018-07-21T15:20:05.347Z,39.87
2018-07-21T15:22:33.983Z,42.19
2018-07-21T15:25:02.618Z,43.73
2018-07-21T15:27:31.413Z,45.16
2018-07-21T15:30:00.127Z,45.59
2018-07-21T15:32:28.836Z,46.52
2018-07-21T15:34:57.455Z,49.48
2018-07-21T15:37:26.160Z,50.93
2018-07-21T15:39:54.840Z,51.72
2018-07-21T15:42:23.474Z,52.99
2018-07-21T15:44:52.165Z,53.89
2018-07-21T15:47:20.796Z,55.42
2018-07-21T15:49:49.460Z,54.89
2018-07-21T15:52:18.172Z,56.17
2018-07-21T15:54:46.818Z,56.02
2018-07-21T15:57:15.585Z,56.24
2018-07-21T15:59:44.295Z,56.97
2018-07-21T16:02:12.955Z,56.81
2018-07-21T16:04:41.811Z,56.22
2018-07-21T16:07:10.515Z,56.69
2018-07-21T16:09:39.255Z,57.86
2018-07-21T16:12:07.873Z,58.16
2018-07-21T16:14:36.604Z,58.23
2018-07-21T16:17:05.588Z,57.73
2018-07-21T16:19:34.304Z,57.98
2018-07-21T16:22:03.025Z,58.28
2018-07-21T16:24:31.679Z,57.86
2018-07-21T16:27:00.403Z,58.05
2018-07-21T16:29:29.237Z,58.45
2018-07-21T16:31:57.827Z,59.27
2018-07-21T16:34:26.587Z,59.20
2018-07-21T16:36:55.425Z,59.70
2018-07-21T16:39:24.255Z,59.36
2018-07-21T16:41:52.909Z,59.76
2018-07-21T16:44:21.545Z,59.62
2018-07-21T16:46:50.189Z,60.41
2018-07-21T16:49:18.862Z,60.88
2018-07-21T16:51:47.568Z,60.77
2018-07-21T16:54:16.273Z,60.75
2018-07-21T16:56:44.938Z,60.19
2018-07-21T16:59:13.626Z,60.26
2018-07-21T17:01:42.323Z,60.17
2018-07-21T17:04:11.038Z,60.17
2018-07-21T17:06:39.812Z,59.91
2018-07-21T17:09:09.923Z,59.87
2018-07-21T17:11:38.769Z,60.24
2018-07-21T17:14:08.030Z,60.04
2018-07-21T17:16:36.730Z,60.55
2018-07-21T17:19:05.809Z,60.01
2018-07-21T17:21:34.572Z,59.68
2018-07-21T17:24:03.262Z,59.37
2018-07-21T17:26:31.924Z,58.92
2018-07-21T17:29:00.582Z,58.88
2018-07-21T17:31:29.293Z,58.99
2018-07-21T17:33:58.062Z,59.48
2018-07-21T17:36:26.770Z,59.73
2018-07-21T17:38:55.382Z,59.83
2018-07-21T17:41:24.152Z,60.00
2018-07-21T17:43:52.796Z,59.48
2018-07-21T17:46:21.446Z,59.89
2018-07-21T17:48:50.115Z,60.26
2018-07-21T17:51:18.774Z,60.66
2018-07-21T17:53:47.402Z,60.50
2018-07-21T17:56:16.054Z,61.25
2018-07-21T17:58:45.026Z,60.64
2018-07-21T18:01:13.710Z,60.60
2018-07-21T18:03:42.444Z,61.00
2018-07-21T18:06:11.151Z,61.64
2018-07-21T18:08:39.951Z,61.61
2018-07-21T18:11:08.632Z,62.14
2018-07-21T18:13:37.331Z,61.89
2018-07-21T18:16:06.138Z,62.90
2018-07-21T18:18:34.802Z,62.94
2018-07-21T18:21:03.589Z,63.79
2018-07-21T18:23:32.329Z,63.36
2018-07-21T18:26:01.196Z,64.17
2018-07-21T18:28:29.882Z,64.05
2018-07-21T18:30:58.477Z,64.27
2018-07-21T18:33:27.230Z,64.45
2018-07-21T18:35:55.833Z,64.92
2018-07-21T18:38:24.531Z,65.80
2018-07-21T18:40:53.192Z,65.66
2018-07-21T18:43:21.974Z,65.81
2018-07-21T18:45:50.636Z,66.80
2018-07-21T18:48:19.433Z,66.44
2018-07-21T18:50:48.138Z,67.15
2018-07-21T18:53:17.163Z,66.72
2018-07-21T18:55:45.873Z,66.71
2018-07-21T18:58:14.685Z,66.57
2018-07-21T19:00:43.560Z,67.20
2018-07-21T19:03:12.270Z,67.02
2018-07-21T19:05:40.965Z,67.39
2018-07-21T19:08:13.069Z,67.47
2018-07-21T19:10:41.700Z,67.13
2018-07-21T19:13:10.558Z,67.72
2018-07-21T19:15:44.446Z,67.57
2018-07-21T19:18:13.160Z,67.48
2018-07-21T19:20:47.051Z,68.11
2018-07-21T19:23:15.826Z,68.17
2018-07-21T19:27:55.745Z,68.81
2018-07-21T19:30:24.418Z,68.50
2018-07-21T19:32:58.182Z,68.17
2018-07-21T19:35:27.576Z,68.45
2018-07-21T19:37:56.200Z,68.33
2018-07-21T19:40:24.904Z,68.60
2018-07-21T19:42:53.607Z,68.31
2018-07-21T19:48:21.354Z,68.64
2018-07-21T19:50:50.019Z,68.24
2018-07-21T19:53:18.934Z,68.41
2018-07-21T19:55:47.609Z,68.56
2018-07-21T19:58:16.371Z,68.45
2018-07-21T20:00:45.230Z,68.63
2018-07-21T20:03:14.019Z,68.27
2018-07-21T20:05:42.823Z,68.60
2018-07-21T20:08:11.533Z,69.12
2018-07-21T20:10:40.314Z,69.16
2018-07-21T20:13:09.164Z,69.05
2018-07-21T20:15:38.185Z,68.80
2018-07-21T20:18:06.940Z,69.23
2018-07-21T20:20:35.849Z,69.31
2018-07-21T20:23:04.975Z,69.46
2018-07-21T20:25:33.667Z,69.84
2018-07-21T20:28:02.400Z,69.79
2018-07-21T20:30:31.134Z,69.63
2018-07-21T20:32:59.969Z,69.53
2018-07-21T20:35:28.656Z,69.69
2018-07-21T20:37:57.577Z,70.16
2018-07-21T20:40:26.286Z,69.92
2018-07-21T20:42:54.979Z,70.06
2018-07-21T20:45:23.639Z,70.78
2018-07-21T20:47:52.347Z,70.17
2018-07-21T20:50:21.073Z,70.71
2018-07-21T20:52:49.768Z,71.09
2018-07-21T20:55:18.579Z,71.05
2018-07-21T20:57:47.274Z,70.97
2018-07-21T21:00:16.052Z,71.23
2018-07-21T21:02:44.913Z,71.61
2018-07-21T21:05:14.879Z,72.12
2018-07-21T21:07:43.594Z,72.38
2018-07-21T21:10:12.388Z,72.11
2018-07-21T21:12:41.090Z,72.15
2018-07-21T21:15:09.761Z,72.68
2018-07-21T21:17:38.582Z,72.23
2018-07-21T21:20:07.318Z,72.62
2018-07-21T21:22:36.030Z,72.38
2018-07-21T21:25:05.053Z,72.40
2018-07-21T21:27:33.692Z,72.85
2018-07-21T21:30:02.290Z,72.72
2018-07-21T21:32:30.986Z,72.75
2018-07-21T21:34:59.645Z,73.09
2018-07-21T21:37:28.367Z,73.14
2018-07-21T21:39:57.089Z,73.24
2018-07-21T21:42:25.841Z,73.51
2018-07-21T21:44:54.374Z,73.57
2018-07-21T21:47:23.029Z,73.18
2018-07-21T21:49:51.685Z,73.18
2018-07-21T21:52:20.389Z,73.41
2018-07-21T21:54:49.159Z,73.35
2018-07-21T21:57:18.084Z,73.28
2018-07-21T21:59:46.859Z,72.93
2018-07-21T22:02:15.795Z,72.95
2018-07-21T22:04:44.611Z,72.81
2018-07-21T22:07:13.497Z,73.11
2018-07-21T22:09:42.105Z,72.53
2018-07-21T22:12:10.729Z,72.78
2018-07-21T22:14:39.358Z,73.00
2018-07-21T22:17:08.024Z,73.03
2018-07-21T22:19:36.755Z,72.86
2018-07-21T22:22:05.609Z,72.54
2018-07-21T22:24:34.297Z,72.66
2018-07-21T22:27:02.984Z,73.03
2018-07-21T22:29:31.688Z,72.83
2018-07-21T22:32:00.424Z,73.11
2018-07-21T22:34:29.192Z,73.28
2018-07-21T22:36:57.964Z,73.25
2018-07-21T22:39:26.567Z,73.05
2018-07-21T22:41:55.289Z,73.31
2018-07-21T22:44:24.039Z,73.22
2018-07-21T22:46:52.873Z,72.75
2018-07-21T22:49:21.515Z,72.71
2018-07-21T22:51:50.284Z,72.52
2018-07-21T22:54:18.920Z,72.69
2018-07-21T22:56:47.884Z,72.66
2018-07-21T22:59:16.585Z,73.10
2018-07-21T23:01:45.206Z,72.91
2018-07-21T23:04:13.957Z,72.64
2018-07-21T23:06:42.788Z,72.93
2018-07-21T23:09:11.416Z,73.29
2018-07-21T23:11:40.104Z,73.10
2018-07-21T23:14:09.320Z,73.11
2018-07-21T23:16:38.021Z,73.01
2018-07-21T23:19:06.705Z,73.67
2018-07-21T23:21:35.424Z,73.29
2018-07-21T23:24:04.164Z,73.56
2018-07-21T23:26:32.871Z,73.10
2018-07-21T23:29:01.604Z,73.29
2018-07-21T23:31:30.317Z,73.11
2018-07-21T23:33:59.042Z,72.86
2018-07-21T23:36:27.725Z,72.61
2018-07-21T23:38:56.396Z,72.96
2018-07-21T23:41:25.040Z,72.56
2018-07-21T23:43:53.768Z,72.84
2018-07-21T23:46:22.464Z,72.88
2018-07-21T23:48:51.071Z,72.97
2018-07-21T23:51:19.963Z,72.60
2018-07-21T23:53:48.619Z,73.26
2018-07-21T23:56:17.296Z,73.31
2018-07-21T23:58:46.424Z,73.22
